Los Gatos, California
Current Conditions -  °F | °C
As of 9:53 AM on Thursday 18 Dec 2014 (Local Time) from KSJC Reporting Station
Broken Clouds Broken Clouds  
Wind Chill: 13°   Ceiling: 5000
Heat Index: 13°   Visibility: 10mi
Dew Point:   Wind: 10mph
Humidity: 77%   Direction: 110°ESE
Pressure: 30.17"   Gusts: NA
Location:  37.22°N, 121.97°W
Report Text: KSJC 181753Z 11009KT 10SM FEW014 SCT020 BKN050 13/09 A3017 RMK AO2 SLP216 T01280089 10128 20100 53018
Loading
Personal Weather Stations






























Interactive Weather Map New forecast layout! Learn more

10-Day Weather Forecast

Advertisements
Track Severe Weather on mobile